ホーチミン の空港の天気 - METARとTAF

タンソンニャット国際空港 (ホーチミン) ( VVTS / SGN ) - ベトナム ホーチミン市
飛行場実況気象(Metar)
観測時間12/18 15:30 ICT (12/18 08:30 UTC)
風向・風速北 3m/s
視程10km以上
天気現象
全天の4割程度の雲 雲底高度 610m
気温30℃
湿度43%
気圧1010hPa
METARVVTS 180830Z 35006KT 310V020 9999 SCT020 30/16 Q1010 NOSIG
過去の天気等 Google飛行場航空写真 Wunderground天気予報

過去48時間のMETAR

飛行場予報(TAF)
発表時間: 12/18 12:00 ICT (12/18 05:00 UTC)
予報対象時間: 18日13時 ICT ~ 19日19時 ICT
風向・風速北北東 5m/s
視程10km以上
全天の4割程度の雲 雲底高度 520m
TAF VVTS 180500Z 1806/1912 02009KT 9999 SCT017